• Join FlightAware (Why Join?)
  • Login
  • US Flag 
Rudolph Flight #1: Arrived! 
09:25PM EST


 

Airport Tracker/Info


-or-


 

Live Flight TrackerFlight Track Log ✈ N510SR ✈ 24-Nov-2013 ✈ KOPF - SBGR / GRU

Flight Track Log - Related Links

Times and Time Zones

All times are in EST time to prevent confusion due to time zone crossing. See the N510SR flight status page for this flight to view local times or setup timezone preferences in your user account.

Time Position Orientation Groundspeed Altitude Reporting Facility
EST Latitude Longitude Course Direction KTS MPH feet Rate Location/Type
08:59PM 25.9111 -80.2639 89° East 184 212 600  Level Miami Center
08:59PM 25.9119 -80.2269 89° East 178 205 2,200 1,560 Climbing Miami Center
09:00PM 25.9072 -80.1667 95° East 199 229 3,400 1,140 Climbing Miami Center
09:01PM 25.9125 -80.1139 84° East 234 269 4,200 1,800 Climbing Miami Center
09:01PM 25.9089 -80.0953 102° East 250 288 5,200 2,400 Climbing Miami Center
09:02PM 25.9164 -80.0375 82° East 252 290 6,600 2,640 Climbing Miami Center
09:02PM 25.9147 -80.0100 94° East 266 306 7,900 2,580 Climbing Miami Center
09:03PM 25.9242 -79.9592 78° East 291 335 9,200 1,620 Climbing Miami Center
09:04PM 25.9322 -79.8694 84° East 291 335 10,700 1,440 Climbing Miami Center
09:05PM 25.9408 -79.7633 85° East 313 360 12,100 1,680 Climbing Miami Center
09:06PM 25.9533 -79.6506 83° East 345 397 14,100 1,860 Climbing Miami Center
09:07PM 25.9619 -79.5211 86° East 371 427 15,900 1,680 Climbing Miami Center
09:08PM 25.9703 -79.4106 85° East 393 452 17,500 1,440 Climbing Miami Center
09:09PM 25.9581 -79.2717 96° East 404 465 18,800 1,260 Climbing Miami Center
09:10PM 25.9433 -79.1533 98° East 415 478 20,100 1,260 Climbing Miami Center
09:11PM 25.8908 -79.0322 116° Southeast 415 478 21,400 1,320 Climbing Miami Center
09:12PM 25.8194 -78.9017 121° Southeast 432 497 22,800 1,200 Climbing Miami Center
09:13PM 25.7522 -78.7831 122° Southeast 449 517 23,900 1,080 Climbing Miami Center
09:14PM 25.6889 -78.6575 119° Southeast 461 531 25,000 1,020 Climbing Miami Center
09:15PM 25.6214 -78.5319 121° Southeast 467 537 26,000 900 Climbing Miami Center
09:16PM 25.5539 -78.4067 121° Southeast 472 543 26,900 960 Climbing Miami Center
09:17PM 25.4842 -78.2769 121° Southeast 477 549 28,000 1,200 Climbing Miami Center
09:18PM 25.4164 -78.1494 120° Southeast 482 555 29,300 1,200 Climbing Miami Center
09:19PM 25.3464 -78.0222 121° Southeast 482 555 30,400 1,020 Climbing Miami Center
09:20PM 25.2844 -77.9114 122° Southeast 477 549 31,400 1,020 Climbing Miami Center
09:21PM 25.2269 -77.7778 115° Southeast 477 549 32,500 1,080 Climbing Miami Center
09:22PM 25.1753 -77.6419 113° Southeast 477 549 33,600 960 Climbing Miami Center
09:23PM 25.1175 -77.4969 114° Southeast 477 549 34,500 1,200 Climbing Miami Center
09:24PM 25.0658 -77.3519 111° Southeast 482 555 36,000 1,260 Climbing Miami Center
09:25PM 25.0097 -77.2189 115° Southeast 487 560 37,100 900 Climbing Miami Center
09:26PM 24.9578 -77.0881 114° Southeast 476 548 37,900 900 Climbing Miami Center
09:27PM 24.8869 -76.9642 122° Southeast 471 542 38,900 600 Climbing Miami Center
09:28PM 24.8181 -76.8450 122° Southeast 471 542 39,100 60 Climbing Miami Center
09:29PM 24.7489 -76.7239 122° Southeast 471 542 39,100  Level Miami Center
09:30PM 24.6756 -76.5958 122° Southeast 477 549 39,200 180 Climbing Miami Center
09:31PM 24.5981 -76.4681 124° Southeast 489 563 39,500 300 Climbing Miami Center
09:32PM 24.5306 -76.3403 120° Southeast 489 563 39,800 300 Climbing Miami Center
09:33PM 24.4550 -76.2197 125° Southeast 489 563 40,100 240 Climbing Miami Center
09:34PM 24.3811 -76.0944 123° Southeast 489 563 40,300 60 Climbing Miami Center
09:35PM 24.3072 -75.9650 122° Southeast 489 563 40,300 180 Level Miami Center
09:36PM 24.2333 -75.8378 122° Southeast 495 570 40,700 300 Climbing Miami Center
09:37PM 24.1658 -75.7292 124° Southeast 495 570 41,000 180 Climbing Miami Center
09:38PM 24.0894 -75.6000 123° Southeast 495 570 41,100  Climbing Miami Center
09:39PM 24.0153 -75.4758 123° Southeast 495 570 41,100  Level Miami Center
09:40PM 23.9408 -75.3469 122° Southeast 495 570 41,100  Level Miami Center
09:41PM 23.8642 -75.2228 124° Southeast 495 570 41,100  Level Miami Center
09:42PM 23.7875 -75.0967 124° Southeast 500 575 41,100  Level Miami Center
09:43PM 23.7150 -74.9728 123° Southeast 500 575 41,100  Level Miami Center
09:44PM 23.6381 -74.8447 123° Southeast 500 575 41,100  Level Miami Center
09:45PM 23.5611 -74.7214 124° Southeast 500 575 41,100  Level Miami Center
09:46PM 23.4842 -74.5981 124° Southeast 500 575 41,100  Level Miami Center
09:47PM 23.4089 -74.4706 123° Southeast 500 575 41,100  Level Miami Center
09:48PM 23.3297 -74.3453 125° Southeast 500 575 41,100  Level Miami Center
09:49PM 23.2522 -74.2200 124° Southeast 500 575 41,100  Level Miami Center
09:50PM 23.1750 -74.0997 125° Southeast 500 575 41,100  Level Miami Center
09:51PM 23.1058 -73.9747 121° Southeast 500 575 41,100  Level Miami Center
09:52PM 23.0303 -73.8522 124° Southeast 500 575 41,100  Level Miami Center
09:53PM 22.9483 -73.7303 126° Southeast 495 570 41,100  Level Miami Center
09:54PM 22.8769 -73.6078 122° Southeast 495 570 41,100  Level Miami Center
09:55PM 22.8011 -73.4881 124° Southeast 495 570 41,100  Level Miami Center
09:56PM 22.7144 -73.3531 125° Southeast 489 563 41,100  Level Miami Center
09:57PM 22.6386 -73.2314 124° Southeast 489 563 41,100  Level Miami Center
09:58PM 22.5731 -73.1208 123° Southeast 489 563 41,100  Level Miami Center
09:59PM 22.4969 -72.9994 124° Southeast 484 557 41,100  Level Miami Center
10:00PM 22.4208 -72.8758 124° Southeast 484 557 41,100  Level Miami Center
10:01PM 22.3425 -72.7550 125° Southeast 484 557 41,100  Level Miami Center
10:02PM 22.2658 -72.6317 124° Southeast 489 563 41,100  Level Miami Center
10:03PM 22.1894 -72.5108 124° Southeast 489 563 41,100  Level Miami Center
10:04PM 22.1064 -72.3792 124° Southeast 489 563 41,100  Level Miami Center
10:05PM 22.0275 -72.2564 125° Southeast 489 563 41,100  Level Miami Center
10:06PM 21.9508 -72.1361 124° Southeast 489 563 41,100  Level Miami Center
10:07PM 21.8761 -72.0136 123° Southeast 489 563 41,100  Level Miami Center
10:08PM 21.7969 -71.8914 125° Southeast 489 563 41,100  Level Miami Center
10:09PM 21.7200 -71.7714 125° Southeast 489 563 41,100  Level Miami Center
10:10PM 21.6408 -71.6494 125° Southeast 489 563 41,100  Level Miami Center
10:11PM 21.5636 -71.5297 125° Southeast 494 568 41,100  Level Miami Center
10:12PM 21.4864 -71.4103 125° Southeast 489 563 41,100  Level Miami Center
10:13PM 21.4136 -71.3019 126° Southeast 489 563 41,100  Level Miami Center
10:14PM 21.3233 -71.1722 127° Southeast 489 563 41,100  Level Miami Center
10:15PM 21.2544 -71.0550 122° Southeast 499 574 41,100  Level Miami Center
10:16PM 21.1789 -70.9336 124° Southeast 499 574 41,100  Level Miami Center
10:17PM 21.1033 -70.8169 125° Southeast 494 568 41,100  Level Miami Center
10:18PM 21.0278 -70.6983 124° Southeast 494 568 41,100  Level Miami Center
10:19PM 20.9522 -70.5797 124° Southeast 489 563 41,100  Level Miami Center
10:20PM 20.8722 -70.4614 126° Southeast 489 563 41,100  Level Miami Center
10:21PM 20.7942 -70.3408 125° Southeast 489 563 41,100  Level Miami Center
10:22PM 20.7161 -70.2206 125° Southeast 494 568 41,100  Level Miami Center
10:23PM 20.6361 -70.1006 125° Southeast 494 568 41,100  Level Miami Center
10:24PM 20.5597 -69.9781 124° Southeast 494 568 41,100  Level Miami Center
10:25PM 20.4775 -69.8586 126° Southeast 501 577 41,100  Level Miami Center
10:26PM 20.3992 -69.7411 125° Southeast 501 577 41,100  Level Miami Center
10:27PM 20.3208 -69.6214 125° Southeast 501 577 41,100  Level Miami Center
10:28PM 20.2422 -69.4997 125° Southeast 501 577 41,100  Level Miami Center
10:29PM 20.1594 -69.3828 127° Southeast 501 577 41,100  Level Miami Center
10:30PM 20.0831 -69.2658 125° Southeast 496 571 41,100  Level Miami Center
10:31PM 20.0044 -69.1467 125° Southeast 496 571 41,100  Level Miami Center
10:32PM 19.9258 -69.0300 126° Southeast 496 571 41,100  Level Miami Center
10:33PM 19.8450 -68.9136 126° Southeast 496 571 41,100  Level Miami Center
10:34PM 19.7644 -68.8017 127° Southeast 490 564 41,100  Level Miami Center
10:35PM 19.6794 -68.6858 128° Southeast 490 564 41,100  Level Miami Center
10:36PM 19.5925 -68.5744 130° Southeast 490 564 41,100 -60 Level Miami Center
10:37PM 19.4833 -68.4333 129° Southeast 490 564 41,000 -60 Descending San Juan Center
10:38PM 19.4000 -68.3167 127° Southeast 490 564 41,000  Level San Juan Center
10:39PM 19.3167 -68.2000 127° Southeast 490 564 41,000  Level San Juan Center
10:40PM 19.2333 -68.0833 127° Southeast 490 564 41,000  Level San Juan Center
10:41PM 19.1333 -67.9667 132° Southeast 500 575 41,000  Level San Juan Center
10:42PM 19.0500 -67.8500 127° Southeast 490 564 41,000  Level San Juan Center
10:43PM 18.9667 -67.7500 131° Southeast 490 564 41,000  Level San Juan Center
10:44PM 18.8833 -67.6333 127° Southeast 500 575 41,000  Level San Juan Center
10:45PM 18.8000 -67.5167 127° Southeast 490 564 41,000  Level San Juan Center
10:46PM 18.7167 -67.4000 127° Southeast 500 575 41,000  Level San Juan Center
10:47PM 18.6333 -67.2833 127° Southeast 500 575 41,000  Level San Juan Center
10:48PM 18.5500 -67.1667 127° Southeast 490 564 41,000  Level San Juan Center
10:49PM 18.4500 -67.0667 137° Southeast 480 552 41,000  Level San Juan Center
10:50PM 18.3500 -66.9667 136° Southeast 490 564 41,000  Level San Juan Center
10:51PM 18.2333 -66.8833 146° Southeast 490 564 41,000  Level San Juan Center
10:52PM 18.1333 -66.8000 142° Southeast 490 564 41,000  Level San Juan Center
10:53PM 18.0333 -66.7000 136° Southeast 500 575 41,000  Level San Juan Center
10:54PM 17.9167 -66.6167 146° Southeast 480 552 41,000  Level San Juan Center
10:55PM 17.8167 -66.5167 136° Southeast 490 564 41,000  Level San Juan Center
10:56PM 17.7000 -66.4167 141° Southeast 500 575 41,000  Level San Juan Center
10:57PM 17.5833 -66.3167 141° Southeast 500 575 41,000  Level San Juan Center
10:58PM 17.4833 -66.2333 142° Southeast 490 564 41,000  Level San Juan Center
10:59PM 17.3667 -66.1333 141° Southeast 490 564 41,000  Level San Juan Center
11:00PM 17.2667 -66.0500 141° Southeast 490 564 41,000  Level San Juan Center
11:01PM 17.1667 -65.9667 141° Southeast 490 564 41,000  Level San Juan Center
11:02PM 17.0500 -65.8667 141° Southeast 490 564 41,000  Level San Juan Center
11:03PM 16.9500 -65.7833 141° Southeast 490 564 41,000  Level San Juan Center
11:04PM 16.8500 -65.6833 136° Southeast 490 564 41,000  Level San Juan Center
11:05PM 16.7500 -65.6000 141° Southeast 480 552 41,000  Level San Juan Center
11:06PM 16.6333 -65.5167 146° Southeast 490 564 41,000  Level San Juan Center
11:07PM 16.5333 -65.4167 136° Southeast 480 552 41,000  Level San Juan Center
11:08PM 16.4333 -65.3333 141° Southeast 490 564 41,000  Level San Juan Center
11:09PM 16.3167 -65.2500 146° Southeast 490 564 41,000  Level San Juan Center
11:10PM 16.2167 -65.1500 136° Southeast 480 552 41,000  Level San Juan Center
11:11PM 16.1000 -65.0667 146° Southeast 500 575 41,000  Level San Juan Center
11:12PM 15.9833 -64.9667 141° Southeast 480 552 41,000  Level San Juan Center
11:13PM 15.8833 -64.8833 141° Southeast 500 575 41,000  Level San Juan Center
11:15PM 15.6833 -64.7167 141° Southeast 500 575 41,000  Level San Juan Center
11:16PM 15.5667 -64.6167 140° Southeast 500 575 41,100  Climbing San Juan Center
11:17PM 15.4667 -64.5333 141° Southeast 490 564 41,100  Level San Juan Center
11:18PM 15.3667 -64.4500 141° Southeast 500 575 41,100  Level San Juan Center
11:19PM 15.2500 -64.3500 140° Southeast 500 575 41,100 120 Level San Juan Center
11:20PM 15.1500 -64.2667 141° Southeast 500 575 41,400 300 Climbing San Juan Center
11:22PM 15.0337 -64.1671 136° Southeast  Level FlightAware Approximate
11:29PM 14.2921 -63.7027 149° Southeast  Level FlightAware Approximate
11:30PM 14.1851 -63.6379 150° Southeast  Level FlightAware Approximate
11:31PM 14.0783 -63.5727 149° Southeast  Level FlightAware Approximate
11:32PM 13.9717 -63.5073 149° Southeast  Level FlightAware Approximate
11:33PM 13.8651 -63.4420 149° Southeast  Level FlightAware Approximate
11:34PM 13.7584 -63.3768 149° Southeast  Level FlightAware Approximate
11:35PM 13.6518 -63.3116 149° Southeast  Level FlightAware Approximate
11:36PM 13.5451 -63.2464 149° Southeast  Level FlightAware Approximate
11:37PM 13.4384 -63.1814 149° Southeast  Level FlightAware Approximate
11:38PM 13.3317 -63.1164 149° Southeast  Level FlightAware Approximate
11:39PM 13.2250 -63.0513 149° Southeast  Level FlightAware Approximate
11:40PM 13.1185 -62.9860 149° Southeast  Level FlightAware Approximate
11:41PM 13.0119 -62.9208 149° Southeast  Level FlightAware Approximate
11:42PM 12.9053 -62.8556 149° Southeast  Level FlightAware Approximate
11:43PM 12.7988 -62.7905 149° Southeast  Level FlightAware Approximate
11:44PM 12.6922 -62.7255 149° Southeast  Level FlightAware Approximate
11:45PM 12.5856 -62.6604 149° Southeast  Level FlightAware Approximate
11:46PM 12.4789 -62.5955 149° Southeast  Level FlightAware Approximate
11:47PM 12.3723 -62.5306 149° Southeast  Level FlightAware Approximate
11:48PM 12.2657 -62.4658 149° Southeast  Level FlightAware Approximate
11:49PM 12.1590 -62.4010 149° Southeast  Level FlightAware Approximate
11:50PM 12.0523 -62.3362 149° Southeast  Level FlightAware Approximate
11:51PM 11.9456 -62.2715 149° Southeast  Level FlightAware Approximate
11:52PM 11.8389 -62.2069 149° Southeast  Level FlightAware Approximate
11:53PM 11.7319 -62.1428 150° Southeast  Level FlightAware Approximate
11:54PM 11.6247 -62.0790 150° Southeast  Level FlightAware Approximate
11:55PM 11.5175 -62.0152 150° Southeast  Level FlightAware Approximate
11:56PM 11.4103 -61.9515 150° Southeast  Level FlightAware Approximate
11:57PM 11.3031 -61.8879 150° Southeast  Level FlightAware Approximate
11:58PM 11.1959 -61.8243 150° Southeast  Level FlightAware Approximate
11:59PM 11.0886 -61.7607 150° Southeast  Level FlightAware Approximate
12:00AM 10.9814 -61.6972 150° Southeast  Level FlightAware Approximate
12:01AM 10.8741 -61.6337 150° Southeast  Level FlightAware Approximate
12:02AM 10.7669 -61.5703 150° Southeast  Level FlightAware Approximate
12:03AM 10.6596 -61.5070 150° Southeast  Level FlightAware Approximate
12:04AM 10.5522 -61.4436 150° Southeast  Level FlightAware Approximate
12:05AM 10.4464 -61.3787 128° Southeast  Level FlightAware Approximate
12:06AM 10.3693 -61.2799 128° Southeast  Level FlightAware Approximate
12:07AM 10.2921 -61.1811 128° Southeast  Level FlightAware Approximate
12:08AM 10.2150 -61.0824 128° Southeast  Level FlightAware Approximate
12:09AM 10.1378 -60.9837 128° Southeast  Level FlightAware Approximate
12:10AM 10.0606 -60.8851 128° Southeast  Level FlightAware Approximate
12:11AM 9.9834 -60.7865 129° Southeast  Level FlightAware Approximate
12:12AM 9.9061 -60.6880 129° Southeast  Level FlightAware Approximate
12:13AM 9.8288 -60.5895 129° Southeast  Level FlightAware Approximate
12:14AM 9.7515 -60.4910 129° Southeast  Level FlightAware Approximate
12:15AM 9.6741 -60.3927 129° Southeast  Level FlightAware Approximate
12:16AM 9.5968 -60.2943 129° Southeast  Level FlightAware Approximate
12:17AM 9.5193 -60.1960 129° Southeast  Level FlightAware Approximate
12:18AM 9.4419 -60.0977 129° Southeast  Level FlightAware Approximate
12:19AM 9.3644 -59.9995 129° Southeast  Level FlightAware Approximate
12:20AM 9.2870 -59.9014 129° Southeast  Level FlightAware Approximate
12:21AM 9.2094 -59.8032 129° Southeast  Level FlightAware Approximate
12:22AM 9.1319 -59.7052 129° Southeast  Level FlightAware Approximate
12:23AM 9.0543 -59.6071 129° Southeast  Level FlightAware Approximate
12:24AM 8.9767 -59.5091 129° Southeast  Level FlightAware Approximate
12:25AM 8.8984 -59.4117 131° Southeast  Level FlightAware Approximate
12:26AM 8.8177 -59.3164 131° Southeast  Level FlightAware Approximate
12:27AM 8.7370 -59.2210 131° Southeast  Level FlightAware Approximate
12:28AM 8.6602 -59.1225 128° Southeast  Level FlightAware Approximate
12:29AM 8.5835 -59.0239 128° Southeast  Level FlightAware Approximate
12:30AM 8.5068 -58.9253 128° Southeast  Level FlightAware Approximate
12:31AM 8.3941 -58.8764 159° South  Level FlightAware Approximate
12:32AM 8.2780 -58.8322 159° South  Level FlightAware Approximate
12:33AM 8.1619 -58.7881 159° South  Level FlightAware Approximate
12:34AM 8.0458 -58.7440 159° South  Level FlightAware Approximate
12:35AM 7.9297 -58.6999 159° South  Level FlightAware Approximate
12:36AM 7.8135 -58.6559 159° South  Level FlightAware Approximate
12:37AM 7.6974 -58.6119 159° South  Level FlightAware Approximate
12:38AM 7.5813 -58.5679 159° South  Level FlightAware Approximate
12:39AM 7.4651 -58.5239 159° South  Level FlightAware Approximate
12:40AM 7.3490 -58.4799 159° South  Level FlightAware Approximate
12:41AM 7.2328 -58.4360 159° South  Level FlightAware Approximate
12:42AM 7.1167 -58.3921 159° South  Level FlightAware Approximate
12:43AM 7.0005 -58.3482 159° South  Level FlightAware Approximate
12:44AM 6.8844 -58.3044 159° South  Level FlightAware Approximate
12:45AM 6.7682 -58.2605 159° South  Level FlightAware Approximate
12:46AM 6.6520 -58.2167 159° South  Level FlightAware Approximate
12:47AM 6.5359 -58.1729 159° South  Level FlightAware Approximate
12:48AM 6.4197 -58.1291 159° South  Level FlightAware Approximate
12:49AM 6.3035 -58.0854 159° South  Level FlightAware Approximate
12:50AM 6.1873 -58.0416 159° South  Level FlightAware Approximate
12:51AM 6.0711 -57.9979 159° South  Level FlightAware Approximate
12:52AM 5.9549 -57.9542 159° South  Level FlightAware Approximate
12:53AM 5.8388 -57.9105 159° South  Level FlightAware Approximate
12:54AM 5.7226 -57.8669 159° South  Level FlightAware Approximate
12:55AM 5.6064 -57.8232 160° South  Level FlightAware Approximate
12:56AM 5.4902 -57.7796 160° South  Level FlightAware Approximate
12:57AM 5.3740 -57.7360 160° South  Level FlightAware Approximate
12:58AM 5.2577 -57.6924 160° South  Level FlightAware Approximate
12:59AM 5.1415 -57.6488 160° South  Level FlightAware Approximate
01:00AM 5.0253 -57.6052 160° South  Level FlightAware Approximate
01:01AM 4.9091 -57.5617 160° South  Level FlightAware Approximate
01:02AM 4.7929 -57.5181 160° South  Level FlightAware Approximate
01:03AM 4.6767 -57.4746 160° South  Level FlightAware Approximate
01:04AM 4.5604 -57.4311 160° South  Level FlightAware Approximate
01:05AM 4.4442 -57.3876 160° South  Level FlightAware Approximate
01:06AM 4.3280 -57.3442 160° South  Level FlightAware Approximate
01:07AM 4.2117 -57.3007 160° South  Level FlightAware Approximate
01:08AM 4.0955 -57.2572 160° South  Level FlightAware Approximate
01:09AM 3.9792 -57.2138 160° South  Level FlightAware Approximate
01:10AM 3.8630 -57.1704 160° South  Level FlightAware Approximate
01:11AM 3.7468 -57.1270 160° South  Level FlightAware Approximate
01:12AM 3.6305 -57.0836 160° South  Level FlightAware Approximate
01:13AM 3.5143 -57.0402 160° South  Level FlightAware Approximate
01:14AM 3.3980 -56.9968 160° South  Level FlightAware Approximate
01:15AM 3.2818 -56.9534 160° South  Level FlightAware Approximate
01:16AM 3.1655 -56.9101 160° South  Level FlightAware Approximate
01:17AM 3.0493 -56.8667 160° South  Level FlightAware Approximate
01:18AM 2.9330 -56.8234 160° South  Level FlightAware Approximate
01:19AM 2.8167 -56.7800 160° South  Level FlightAware Approximate
01:20AM 2.7005 -56.7367 160° South  Level FlightAware Approximate
01:21AM 2.5842 -56.6934 160° South  Level FlightAware Approximate
01:22AM 2.4680 -56.6501 160° South  Level FlightAware Approximate
01:23AM 2.3517 -56.6068 160° South  Level FlightAware Approximate
01:24AM 2.2354 -56.5635 160° South  Level FlightAware Approximate
01:25AM 2.1192 -56.5202 160° South  Level FlightAware Approximate
01:26AM 2.0029 -56.4770 160° South  Level FlightAware Approximate
01:27AM 1.8866 -56.4337 160° South  Level FlightAware Approximate
01:28AM 1.7703 -56.3904 160° South  Level FlightAware Approximate
01:29AM 1.6541 -56.3471 160° South  Level FlightAware Approximate
01:30AM 1.5378 -56.3039 160° South  Level FlightAware Approximate
01:31AM 1.4215 -56.2606 160° South  Level FlightAware Approximate
01:32AM 1.3053 -56.2174 160° South  Level FlightAware Approximate
01:33AM 1.1890 -56.1741 160° South  Level FlightAware Approximate
01:34AM 1.0727 -56.1309 160° South  Level FlightAware Approximate
01:35AM 0.9564 -56.0877 160° South  Level FlightAware Approximate
01:36AM 0.8402 -56.0444 160° South  Level FlightAware Approximate
01:37AM 0.7239 -56.0012 160° South  Level FlightAware Approximate
01:38AM 0.6076 -55.9580 160° South  Level FlightAware Approximate
01:39AM 0.4913 -55.9147 160° South  Level FlightAware Approximate
01:40AM 0.3750 -55.8715 160° South  Level FlightAware Approximate
01:41AM 0.2588 -55.8283 160° South  Level FlightAware Approximate
01:42AM 0.1425 -55.7851 160° South  Level FlightAware Approximate
01:43AM 0.0262 -55.7419 160° South  Level FlightAware Approximate
01:44AM -0.0901 -55.6987 160° South  Level FlightAware Approximate
01:45AM -0.2064 -55.6554 160° South  Level FlightAware Approximate
01:46AM -0.3226 -55.6122 160° South  Level FlightAware Approximate
01:47AM -0.4389 -55.5690 160° South  Level FlightAware Approximate
01:48AM -0.5552 -55.5258 160° South  Level FlightAware Approximate
01:49AM -0.6715 -55.4825 160° South  Level FlightAware Approximate
01:50AM -0.7878 -55.4393 160° South  Level FlightAware Approximate
01:51AM -0.9040 -55.3961 160° South  Level FlightAware Approximate
01:52AM -1.0203 -55.3528 160° South  Level FlightAware Approximate
01:53AM -1.1366 -55.3096 160° South  Level FlightAware Approximate
01:54AM -1.2529 -55.2664 160° South  Level FlightAware Approximate
01:55AM -1.3692 -55.2231 160° South  Level FlightAware Approximate
01:56AM -1.4854 -55.1799 160° South  Level FlightAware Approximate
01:57AM -1.6017 -55.1366 160° South  Level FlightAware Approximate
01:58AM -1.7180 -55.0933 160° South  Level FlightAware Approximate
01:59AM -1.8342 -55.0501 160° South  Level FlightAware Approximate
02:00AM -1.9505 -55.0068 160° South  Level FlightAware Approximate
02:01AM -2.0668 -54.9635 160° South  Level FlightAware Approximate
02:02AM -2.1830 -54.9203 160° South  Level FlightAware Approximate
02:03AM -2.2993 -54.8770 160° South  Level FlightAware Approximate
02:04AM -2.4156 -54.8337 160° South  Level FlightAware Approximate
02:05AM -2.5318 -54.7904 160° South  Level FlightAware Approximate
02:06AM -2.6481 -54.7471 160° South  Level FlightAware Approximate
02:07AM -2.7644 -54.7037 160° South  Level FlightAware Approximate
02:08AM -2.8806 -54.6604 160° South  Level FlightAware Approximate
02:09AM -2.9969 -54.6171 160° South  Level FlightAware Approximate
02:10AM -3.1131 -54.5737 160° South  Level FlightAware Approximate
02:11AM -3.2294 -54.5304 160° South  Level FlightAware Approximate
02:12AM -3.3456 -54.4870 160° South  Level FlightAware Approximate
02:13AM -3.4619 -54.4436 160° South  Level FlightAware Approximate
02:14AM -3.5781 -54.4002 160° South  Level FlightAware Approximate
02:15AM -3.6944 -54.3568 160° South  Level FlightAware Approximate
02:16AM -3.8106 -54.3134 160° South  Level FlightAware Approximate
02:17AM -3.9269 -54.2700 160° South  Level FlightAware Approximate
02:18AM -4.0431 -54.2266 160° South  Level FlightAware Approximate
02:19AM -4.1593 -54.1831 160° South  Level FlightAware Approximate
02:20AM -4.2756 -54.1397 160° South  Level FlightAware Approximate
02:21AM -4.3918 -54.0962 160° South  Level FlightAware Approximate
02:22AM -4.5080 -54.0527 160° South  Level FlightAware Approximate
02:23AM -4.6243 -54.0092 160° South  Level FlightAware Approximate
02:24AM -4.7405 -53.9657 160° South  Level FlightAware Approximate
02:25AM -4.8567 -53.9222 160° South  Level FlightAware Approximate
02:26AM -4.9729 -53.8786 160° South  Level FlightAware Approximate
02:27AM -5.0892 -53.8351 160° South  Level FlightAware Approximate
02:28AM -5.2054 -53.7915 160° South  Level FlightAware Approximate
02:29AM -5.3216 -53.7479 160° South  Level FlightAware Approximate
02:30AM -5.4378 -53.7043 160° South  Level FlightAware Approximate
02:31AM -5.5540 -53.6607 160° South  Level FlightAware Approximate
02:32AM -5.6702 -53.6170 160° South  Level FlightAware Approximate
02:33AM -5.7864 -53.5734 160° South  Level FlightAware Approximate
02:34AM -5.9026 -53.5297 160° South  Level FlightAware Approximate
02:35AM -6.0188 -53.4860 159° South  Level FlightAware Approximate
02:36AM -6.1350 -53.4423 159° South  Level FlightAware Approximate
02:37AM -6.2511 -53.3986 159° South  Level FlightAware Approximate
02:38AM -6.3673 -53.3548 159° South  Level FlightAware Approximate
02:39AM -6.4835 -53.3111 159° South  Level FlightAware Approximate
02:40AM -6.5997 -53.2673 159° South  Level FlightAware Approximate
02:41AM -6.7158 -53.2234 159° South  Level FlightAware Approximate
02:42AM -6.8320 -53.1796 159° South  Level FlightAware Approximate
02:43AM -6.9482 -53.1358 159° South  Level FlightAware Approximate
02:44AM -7.0643 -53.0919 159° South  Level FlightAware Approximate
02:45AM -7.1805 -53.0480 159° South  Level FlightAware Approximate
02:46AM -7.2966 -53.0041 159° South  Level FlightAware Approximate
02:47AM -7.4128 -52.9601 159° South  Level FlightAware Approximate
02:48AM -7.5289 -52.9162 159° South  Level FlightAware Approximate
02:49AM -7.6451 -52.8722 159° South  Level FlightAware Approximate
02:50AM -7.7612 -52.8282 159° South  Level FlightAware Approximate
02:51AM -7.8773 -52.7841 159° South  Level FlightAware Approximate
02:52AM -7.9934 -52.7401 159° South  Level FlightAware Approximate
02:53AM -8.1096 -52.6960 159° South  Level FlightAware Approximate
02:54AM -8.2257 -52.6519 159° South  Level FlightAware Approximate
02:55AM -8.3418 -52.6077 159° South  Level FlightAware Approximate
02:56AM -8.4579 -52.5636 159° South  Level FlightAware Approximate
02:57AM -8.5740 -52.5194 159° South  Level FlightAware Approximate
02:58AM -8.6901 -52.4752 159° South  Level FlightAware Approximate
02:59AM -8.8062 -52.4309 159° South  Level FlightAware Approximate
03:00AM -8.9222 -52.3866 159° South  Level FlightAware Approximate
03:01AM -9.0383 -52.3423 159° South  Level FlightAware Approximate
03:02AM -9.1544 -52.2980 159° South  Level FlightAware Approximate
03:03AM -9.2704 -52.2536 159° South  Level FlightAware Approximate
03:04AM -9.3865 -52.2093 159° South  Level FlightAware Approximate
03:05AM -9.5026 -52.1648 159° South  Level FlightAware Approximate
03:06AM -9.6186 -52.1204 159° South  Level FlightAware Approximate
03:07AM -9.7347 -52.0759 159° South  Level FlightAware Approximate
03:08AM -9.8507 -52.0314 159° South  Level FlightAware Approximate
03:09AM -9.9667 -51.9869 159° South  Level FlightAware Approximate
03:10AM -10.0828 -51.9423 159° South  Level FlightAware Approximate
03:11AM -10.1988 -51.8977 159° South  Level FlightAware Approximate
03:12AM -10.3148 -51.8530 159° South  Level FlightAware Approximate
03:13AM -10.4308 -51.8084 159° South  Level FlightAware Approximate
03:14AM -10.5468 -51.7637 159° South  Level FlightAware Approximate
03:15AM -10.6628 -51.7189 159° South  Level FlightAware Approximate
03:16AM -10.7788 -51.6741 159° South  Level FlightAware Approximate
03:17AM -10.8948 -51.6293 159° South  Level FlightAware Approximate
03:18AM -11.0108 -51.5845 159° South  Level FlightAware Approximate
03:19AM -11.1267 -51.5396 159° South  Level FlightAware Approximate
03:20AM -11.2427 -51.4947 159° South  Level FlightAware Approximate
03:21AM -11.3587 -51.4498 159° South  Level FlightAware Approximate
03:22AM -11.4746 -51.4048 159° South  Level FlightAware Approximate
03:23AM -11.5905 -51.3598 159° South  Level FlightAware Approximate
03:24AM -11.7065 -51.3147 159° South  Level FlightAware Approximate
03:25AM -11.8224 -51.2696 159° South  Level FlightAware Approximate
03:26AM -11.9383 -51.2245 159° South  Level FlightAware Approximate
03:27AM -12.0542 -51.1793 159° South  Level FlightAware Approximate
03:28AM -12.1702 -51.1341 159° South  Level FlightAware Approximate
03:29AM -12.2861 -51.0888 159° South  Level FlightAware Approximate
03:30AM -12.4019 -51.0435 159° South  Level FlightAware Approximate
03:31AM -12.5178 -50.9982 159° South  Level FlightAware Approximate
03:32AM -12.6337 -50.9528 159° South  Level FlightAware Approximate
03:33AM -12.7496 -50.9074 159° South  Level FlightAware Approximate
03:34AM -12.8654 -50.8620 159° South  Level FlightAware Approximate
03:35AM -12.9813 -50.8165 159° South  Level FlightAware Approximate
03:36AM -13.0972 -50.7709 159° South  Level FlightAware Approximate
03:37AM -13.2130 -50.7253 159° South  Level FlightAware Approximate
03:38AM -13.3288 -50.6797 159° South  Level FlightAware Approximate
03:39AM -13.4446 -50.6340 159° South  Level FlightAware Approximate
03:40AM -13.5605 -50.5883 159° South  Level FlightAware Approximate
03:41AM -13.6763 -50.5426 159° South  Level FlightAware Approximate
03:42AM -13.7921 -50.4968 159° South  Level FlightAware Approximate
03:43AM -13.9079 -50.4509 159° South  Level FlightAware Approximate
03:44AM -14.0236 -50.4050 159° South  Level FlightAware Approximate
03:45AM -14.1394 -50.3591 159° South  Level FlightAware Approximate
03:46AM -14.2552 -50.3131 159° South  Level FlightAware Approximate
03:47AM -14.3709 -50.2671 159° South  Level FlightAware Approximate
03:48AM -14.4867 -50.2210 159° South  Level FlightAware Approximate
03:49AM -14.6024 -50.1749 159° South  Level FlightAware Approximate
03:50AM -14.7181 -50.1287 159° South  Level FlightAware Approximate
03:51AM -14.8339 -50.0824 159° South  Level FlightAware Approximate
03:52AM -14.9496 -50.0362 159° South  Level FlightAware Approximate
03:53AM -15.0653 -49.9898 159° South  Level FlightAware Approximate
03:54AM -15.1810 -49.9435 159° South  Level FlightAware Approximate
03:55AM -15.2966 -49.8970 159° South  Level FlightAware Approximate
03:56AM -15.4123 -49.8505 159° South  Level FlightAware Approximate
03:57AM -15.5280 -49.8040 159° South  Level FlightAware Approximate
03:58AM -15.6436 -49.7574 159° South  Level FlightAware Approximate
03:59AM -15.7593 -49.7108 159° South  Level FlightAware Approximate
04:00AM -15.8749 -49.6641 159° South  Level FlightAware Approximate
04:01AM -15.9905 -49.6174 159° South  Level FlightAware Approximate
04:02AM -16.1061 -49.5705 159° South  Level FlightAware Approximate
04:03AM -16.2217 -49.5237 159° South  Level FlightAware Approximate
04:04AM -16.3373 -49.4768 159° South  Level FlightAware Approximate
04:05AM -16.4529 -49.4298 159° South  Level FlightAware Approximate
04:06AM -16.5685 -49.3828 159° South  Level FlightAware Approximate
04:07AM -16.6840 -49.3357 159° South  Level FlightAware Approximate
04:08AM -16.7996 -49.2886 159° South  Level FlightAware Approximate
04:09AM -16.9151 -49.2414 159° South  Level FlightAware Approximate
04:10AM -17.0306 -49.1942 159° South  Level FlightAware Approximate
04:11AM -17.1462 -49.1469 159° South  Level FlightAware Approximate
04:12AM -17.2617 -49.0995 159° South  Level FlightAware Approximate
04:13AM -17.3772 -49.0521 159° South  Level FlightAware Approximate
04:14AM -17.4926 -49.0046 159° South  Level FlightAware Approximate
04:15AM -17.6081 -48.9570 159° South  Level FlightAware Approximate
04:16AM -17.7236 -48.9094 159° South  Level FlightAware Approximate
04:17AM -17.8390 -48.8617 159° South  Level FlightAware Approximate
04:18AM -17.9545 -48.8140 159° South  Level FlightAware Approximate
04:19AM -18.0699 -48.7662 159° South  Level FlightAware Approximate
04:20AM -18.1853 -48.7184 159° South  Level FlightAware Approximate
04:21AM -18.3007 -48.6704 158° South  Level FlightAware Approximate
04:22AM -18.4161 -48.6225 158° South  Level FlightAware Approximate
04:23AM -18.5315 -48.5744 158° South  Level FlightAware Approximate
04:24AM -18.6468 -48.5263 158° South  Level FlightAware Approximate
04:25AM -18.7622 -48.4781 158° South  Level FlightAware Approximate
04:26AM -18.8775 -48.4299 158° South  Level FlightAware Approximate
04:27AM -18.9929 -48.3816 158° South  Level FlightAware Approximate
04:28AM -19.1082 -48.3332 158° South  Level FlightAware Approximate
04:29AM -19.2235 -48.2848 158° South  Level FlightAware Approximate
04:30AM -19.3388 -48.2362 158° South  Level FlightAware Approximate
04:31AM -19.4541 -48.1877 158° South  Level FlightAware Approximate
04:32AM -19.5693 -48.1390 158° South  Level FlightAware Approximate
04:33AM -19.6846 -48.0903 158° South  Level FlightAware Approximate
04:34AM -19.7998 -48.0415 158° South  Level FlightAware Approximate
04:35AM -19.9150 -47.9926 158° South  Level FlightAware Approximate
04:36AM -20.0303 -47.9437 158° South  Level FlightAware Approximate
04:37AM -20.1455 -47.8947 158° South  Level FlightAware Approximate
04:38AM -20.2606 -47.8456 158° South  Level FlightAware Approximate
04:39AM -20.3758 -47.7965 158° South  Level FlightAware Approximate
04:40AM -20.4910 -47.7473 158° South  Level FlightAware Approximate
04:41AM -20.6061 -47.6980 158° South  Level FlightAware Approximate
04:42AM -20.7213 -47.6486 158° South  Level FlightAware Approximate
04:43AM -20.8364 -47.5992 158° South  Level FlightAware Approximate
04:44AM -20.9515 -47.5496 158° South  Level FlightAware Approximate
04:45AM -21.0666 -47.5000 158° South  Level FlightAware Approximate
04:46AM -21.1790 -47.4439 155° Southeast  Level FlightAware Approximate
04:47AM -21.2940 -47.3946 161° South  Level FlightAware Approximate
04:48AM -21.4115 -47.3519 161° South  Level FlightAware Approximate
04:49AM -21.5257 -47.2997 157° South  Level FlightAware Approximate
04:50AM -21.6398 -47.2474 160° South  Level FlightAware Approximate
04:51AM -21.7524 -47.1929 148° Southeast  Level FlightAware Approximate
04:52AM -21.8663 -47.1407 158° South  Level FlightAware Approximate
04:53AM -21.9816 -47.0912 158° South  Level FlightAware Approximate
04:54AM -22.0978 -47.0443 160° South  Level FlightAware Approximate
04:55AM -22.2141 -46.9977 160° South  Level FlightAware Approximate
04:56AM -22.3289 -46.9470 157° South  Level FlightAware Approximate
04:57AM -22.4430 -46.8944 157° South  Level FlightAware Approximate
04:58AM -22.5571 -46.8417 157° South  Level FlightAware Approximate
04:59AM -22.6712 -46.7890 157° South  Level FlightAware Approximate
05:00AM -22.7859 -46.7378 158° South  Level FlightAware Approximate
05:01AM -22.9013 -46.6884 159° South  Level FlightAware Approximate
05:02AM -23.0171 -46.6401 159° South  Level FlightAware Approximate
05:03AM -23.1335 -46.5933 160° South  Level FlightAware Approximate
05:04AM -23.2453 -46.5365 149° Southeast  Level FlightAware Approximate
05:05AM -23.3619 -46.4940 155° Southeast  Level FlightAware Approximate
05:06AM -23.4167 -46.4667 155° Southeast  Level FlightAware Approximate
05:07AM -23.4321 -46.4695 155° Southeast  Level Estimated
05:08AM -23.4321 -46.4695 155° Southeast  Level Estimated
05:09AM -23.4321 -46.4695 155° Southeast  Level Estimated
05:10AM -23.4321 -46.4695 155° Southeast  Level Estimated
05:11AM -23.4321 -46.4695 155° Southeast  Level Estimated
05:12AM -23.4321 -46.4695 155° Southeast  Level Estimated
05:13AM -23.4321 -46.4695 155° Southeast  Level Estimated
05:14AM -23.4321 -46.4695 155° Southeast  Level Estimated
05:15AM -23.4321 -46.4695 155° Southeast  Level Estimated
05:16AM -23.4321 -46.4695 155° Southeast  Level Estimated
05:17AM -23.4321 -46.4695 155° Southeast  Level Estimated
05:18AM -23.4321 -46.4695 155° Southeast  Level Estimated
05:19AM -23.4321 -46.4695 155° Southeast  Level Estimated
05:20AM -23.4321 -46.4695 155° Southeast  Level Estimated
05:21AM -23.4321 -46.4695 155° Southeast  Level Estimated
05:22AM -23.4321 -46.4695 155° Southeast  Level Estimated
05:23AM -23.4321 -46.4695 155° Southeast  Level Estimated
05:24AM -23.4321 -46.4695 155° Southeast  Level Estimated
05:25AM -23.4321 -46.4695 155° Southeast  Level Estimated
05:26AM -23.4321 -46.4695 155° Southeast  Level Estimated
05:27AM -23.4321 -46.4695 155° Southeast  Level Estimated
05:28AM -23.4321 -46.4695 155° Southeast  Level Estimated
05:29AM -23.4321 -46.4695 155° Southeast  Level Estimated